Time;durP1;ratioP1;P1;durP2;ratioP2;P2;SDS_P1;SDS_P2;PMS_P1;PMS_P2;Temp;Humidity;BMP_temperature;BMP_pressure;BME280_temperature;BME280_humidity;BME280_pressure;Samples;Min_cycle;Max_cycle;Signal;HPM_P1;HPM_P2
2022/04/23 00:00:59;;;;;;;;;;;;;;;19.30;42.21;100753.41;4977039;28;19918;-81
2022/04/23 00:03:24;;;;;;;;;;;;;;;19.32;42.12;100751.66;4977207;28;19918;-82
2022/04/23 00:05:50;;;;;;;;;;;;;;;19.30;42.14;100746.44;4977084;28;20249;-81
2022/04/23 00:08:15;;;;;;;;;;;;;;;19.32;42.24;100742.06;4976764;28;19918;-82
2022/04/23 00:10:40;;;;;;;;;;;;;;;19.32;42.13;100747.28;4977211;28;20050;-83
2022/04/23 00:13:05;;;;;;;;;;;;;;;19.32;41.98;100743.81;4976903;28;19922;-84
2022/04/23 00:15:37;;;;;;;;;;;;;;;19.30;42.00;100743.84;4976876;28;19921;-84
2022/04/23 00:18:06;;;;;;;;;;;;;;;19.33;42.32;100741.16;4959328;28;20266;-82
2022/04/23 00:20:32;;;;;;;;;;;;;;;19.35;42.23;100737.69;4976462;28;19922;-83
2022/04/23 00:22:57;;;;;;;;;;;;;;;19.32;42.12;100734.22;4976746;28;19921;-82
2022/04/23 00:25:22;;;;;;;;;;;;;;;19.29;41.97;100742.13;4976971;28;19984;-85
2022/04/23 00:27:47;;;;;;;;;;;;;;;19.28;42.04;100740.38;4959648;28;19918;-82
2022/04/23 00:30:13;;;;;;;;;;;;;;;19.29;42.13;100733.41;4976570;28;20281;-85
2022/04/23 00:32:38;;;;;;;;;;;;;;;19.28;41.84;100734.31;4976610;28;20316;-82
2022/04/23 00:35:05;;;;;;;;;;;;;;;19.33;42.27;100735.09;4942979;28;19968;-82
2022/04/23 00:37:30;;;;;;;;;;;;;;;19.29;42.01;100734.31;4976713;28;19972;-83
2022/04/23 00:39:55;;;;;;;;;;;;;;;19.33;42.34;100732.47;4960787;28;19926;-83
2022/04/23 00:42:20;;;;;;;;;;;;;;;19.28;42.18;100729.97;4983220;28;19973;-82
2022/04/23 00:44:46;;;;;;;;;;;;;;;19.30;42.30;100733.41;4976639;28;19969;-82
2022/04/23 00:47:11;;;;;;;;;;;;;;;19.32;42.28;100742.06;4977097;28;19957;-83
2022/04/23 00:49:36;;;;;;;;;;;;;;;19.30;42.33;100733.41;4959084;28;19957;-83
2022/04/23 00:52:02;;;;;;;;;;;;;;;19.28;42.17;100736.94;4976286;28;20356;-82
2022/04/23 00:54:27;;;;;;;;;;;;;;;19.29;42.29;100733.41;4976338;28;19914;-82
2022/04/23 00:56:53;;;;;;;;;;;;;;;19.25;42.41;100735.25;4976769;28;19914;-82
2022/04/23 00:59:18;;;;;;;;;;;;;;;19.30;42.24;100733.41;4958897;28;19922;-82
2022/04/23 01:01:44;;;;;;;;;;;;;;;19.28;42.30;100734.31;4975868;28;20011;-81
2022/04/23 01:04:11;;;;;;;;;;;;;;;19.24;42.00;100730.03;4942982;28;19918;-82
2022/04/23 01:06:37;;;;;;;;;;;;;;;19.26;42.06;100736.09;4958614;28;20009;-82
2022/04/23 01:09:06;;;;;;;;;;;;;;;19.22;42.51;100731.81;4976284;28;19965;-82
2022/04/23 01:11:32;;;;;;;;;;;;;;;19.25;42.36;100742.19;4958304;28;19918;-81
2022/04/23 01:13:58;;;;;;;;;;;;;;;19.25;42.42;100742.19;4958207;28;20293;-81
2022/04/23 01:16:23;;;;;;;;;;;;;;;19.22;42.32;100739.66;4975840;28;19921;-82
2022/04/23 01:18:48;;;;;;;;;;;;;;;19.19;42.25;100731.88;4958659;28;20072;-82
2022/04/23 01:21:13;;;;;;;;;;;;;;;19.19;42.31;100735.34;4958537;28;19922;-82
2022/04/23 01:23:40;;;;;;;;;;;;;;;19.22;42.39;100740.50;4958141;28;19918;-82
2022/04/23 01:26:07;;;;;;;;;;;;;;;19.19;42.23;100735.34;4975450;28;19921;-85
2022/04/23 01:28:33;;;;;;;;;;;;;;;19.17;42.35;100734.50;4958175;28;19945;-83
2022/04/23 01:30:59;;;;;;;;;;;;;;;19.17;42.61;100737.13;4975786;28;19993;-81
2022/04/23 01:33:27;;;;;;;;;;;;;;;19.21;42.33;100737.94;4958261;28;20337;-85
2022/04/23 01:35:52;;;;;;;;;;;;;;;19.22;42.41;100737.03;4975369;28;19913;-81
2022/04/23 01:38:17;;;;;;;;;;;;;;;19.16;42.50;100726.69;4975649;28;20357;-81
2022/04/23 01:40:42;;;;;;;;;;;;;;;19.11;42.34;100732.00;4975705;28;19922;-81
2022/04/23 01:43:08;;;;;;;;;;;;;;;19.13;42.55;100737.22;4958151;28;20045;-81
2022/04/23 01:45:34;;;;;;;;;;;;;;;19.12;42.47;100733.75;4975329;28;19921;-81
2022/04/23 01:47:59;;;;;;;;;;;;;;;19.15;42.43;100738.03;4961102;28;19915;-80
2022/04/23 01:50:25;;;;;;;;;;;;;;;19.13;42.54;100729.38;4979866;28;20013;-81
2022/04/23 01:52:50;;;;;;;;;;;;;;;19.13;42.54;100724.16;4962012;28;20415;-81
2022/04/23 01:55:15;;;;;;;;;;;;;;;19.15;42.63;100730.22;4961926;28;19918;-82
2022/04/23 01:57:41;;;;;;;;;;;;;;;19.14;42.71;100724.16;4979109;28;19972;-82
2022/04/23 02:00:08;;;;;;;;;;;;;;;19.16;42.81;100719.72;4979872;28;19922;-81
2022/04/23 02:02:34;;;;;;;;;;;;;;;19.17;42.95;100726.69;4961854;28;19920;-82
2022/04/23 02:04:59;;;;;;;;;;;;;;;19.16;42.61;100726.69;4978955;28;19914;-82
2022/04/23 02:07:24;;;;;;;;;;;;;;;19.16;42.65;100727.56;4979002;28;19918;-81
2022/04/23 02:09:50;;;;;;;;;;;;;;;19.15;42.88;100733.69;4979325;28;19918;-80
2022/04/23 02:12:15;;;;;;;;;;;;;;;19.15;42.82;100723.25;4979141;28;19922;-81
2022/04/23 02:14:40;;;;;;;;;;;;;;;19.14;42.89;100725.88;4979028;28;19910;-82
2022/04/23 02:17:05;;;;;;;;;;;;;;;19.15;43.09;100730.22;4961809;28;19946;-83
2022/04/23 02:19:30;;;;;;;;;;;;;;;19.19;43.19;100735.34;4961296;28;20440;-81
2022/04/23 02:21:56;;;;;;;;;;;;;;;19.14;43.07;100726.75;4961659;28;19923;-81
2022/04/23 02:24:22;;;;;;;;;;;;;;;19.20;42.94;100729.22;4978799;28;19918;-81
2022/04/23 02:26:47;;;;;;;;;;;;;;;19.18;42.82;100717.09;4978461;28;19918;-81
2022/04/23 02:29:12;;;;;;;;;;;;;;;19.17;42.79;100718.88;4978468;28;19921;-81
2022/04/23 02:31:37;;;;;;;;;;;;;;;19.18;43.09;100722.31;4961287;28;20365;-81
2022/04/23 02:34:02;;;;;;;;;;;;;;;19.20;42.82;100734.44;4978660;28;19980;-81
2022/04/23 02:36:28;;;;;;;;;;;;;;;19.19;42.78;100724.06;4961322;28;20005;-81
2022/04/23 02:38:53;;;;;;;;;;;;;;;19.20;42.82;100726.63;4961198;28;20385;-82
2022/04/23 02:41:18;;;;;;;;;;;;;;;19.13;43.05;100729.38;4961329;28;20389;-81
2022/04/23 02:43:45;;;;;;;;;;;;;;;19.16;42.87;100727.56;4945201;28;19926;-80
2022/04/23 02:46:14;;;;;;;;;;;;;;;19.11;42.69;100738.06;4978419;28;19925;-81
2022/04/23 02:48:40;;;;;;;;;;;;;;;19.10;43.04;100733.75;4978245;28;19976;-81
2022/04/23 02:51:05;;;;;;;;;;;;;;;19.13;42.95;100737.22;4978164;28;19918;-81
2022/04/23 02:53:30;;;;;;;;;;;;;;;19.16;42.99;100732.78;4978447;28;19960;-81
2022/04/23 02:55:56;;;;;;;;;;;;;;;19.13;42.78;100726.78;4978140;28;20017;-82
2022/04/23 02:58:24;;;;;;;;;;;;;;;19.14;42.86;100731.97;4977859;28;19914;-81
2022/04/23 03:00:49;;;;;;;;;;;;;;;19.13;42.89;100730.22;4960703;28;19929;-81
2022/04/23 03:03:15;;;;;;;;;;;;;;;19.07;43.13;100728.56;4978335;28;19914;-82
2022/04/23 03:05:43;;;;;;;;;;;;;;;19.07;43.31;100728.56;4960452;28;20391;-82
2022/04/23 03:08:11;;;;;;;;;;;;;;;19.10;43.07;100723.34;4977640;28;19919;-81
2022/04/23 03:10:36;;;;;;;;;;;;;;;19.13;43.12;100724.16;4977690;28;19914;-81
2022/04/23 03:13:01;;;;;;;;;;;;;;;19.11;43.18;100726.78;4977749;28;19925;-81
2022/04/23 03:15:26;;;;;;;;;;;;;;;19.09;43.16;100721.59;4978204;28;20399;-81
2022/04/23 03:18:08;;;;;;;;;;;;;;;19.14;43.13;100731.09;4977985;28;19915;-81
2022/04/23 03:20:33;;;;;;;;;;;;;;;19.15;43.00;100731.06;4977742;28;20336;-81
2022/04/23 03:22:59;;;;;;;;;;;;;;;19.11;43.25;100724.19;4960263;28;19922;-81
2022/04/23 03:25:24;;;;;;;;;;;;;;;19.16;43.21;100726.69;4977831;28;20317;-81
2022/04/23 03:27:50;;;;;;;;;;;;;;;19.15;43.19;100728.47;4960034;28;19918;-81
2022/04/23 03:30:15;;;;;;;;;;;;;;;19.08;43.03;100730.31;4977717;28;19914;-82
2022/04/23 03:32:42;;;;;;;;;;;;;;;19.08;43.01;100724.25;4977670;28;20280;-81
2022/04/23 03:35:07;;;;;;;;;;;;;;;19.09;43.01;100729.41;4977605;28;19918;-81
2022/04/23 03:37:33;;;;;;;;;;;;;;;19.09;43.07;100721.59;4977334;28;19981;-82
2022/04/23 03:39:59;;;;;;;;;;;;;;;19.10;43.48;100725.94;4977302;28;19957;-82
2022/04/23 03:42:24;;;;;;;;;;;;;;;19.04;42.98;100726.03;4960111;28;19918;-81
2022/04/23 03:44:49;;;;;;;;;;;;;;;19.05;43.07;100725.16;4977598;28;19914;-81
2022/04/23 03:47:15;;;;;;;;;;;;;;;19.09;43.08;100731.16;4977209;28;19918;-82
2022/04/23 03:49:41;;;;;;;;;;;;;;;19.03;43.04;100731.28;4976964;28;19918;-81
2022/04/23 03:52:06;;;;;;;;;;;;;;;19.03;43.28;100732.16;4976982;28;19977;-81
2022/04/23 03:54:31;;;;;;;;;;;;;;;19.05;43.29;100733.00;4977242;28;20343;-81
2022/04/23 03:56:56;;;;;;;;;;;;;;;19.04;43.13;100736.47;4976997;28;20001;-82
2022/04/23 03:59:23;;;;;;;;;;;;;;;19.02;43.37;100724.34;4976881;28;19918;-81
2022/04/23 04:01:48;;;;;;;;;;;;;;;19.02;43.31;100727.81;4959615;28;19923;-83
2022/04/23 04:04:14;;;;;;;;;;;;;;;18.99;43.17;100729.59;4976812;28;20396;-81
2022/04/23 04:06:40;;;;;;;;;;;;;;;19.02;43.60;100727.81;4959546;28;19940;-82
2022/04/23 04:09:05;;;;;;;;;;;;;;;19.04;43.13;100725.19;4976574;28;20336;-82
2022/04/23 04:12:01;;;;;;;;;;;;;;;19.08;43.33;100721.63;4959321;28;20328;-81
2022/04/23 04:14:16;;;;;;;;;;;;;;;18.73;43.86;100728.28;4976542;28;20005;-83
2022/04/23 04:16:41;;;;;;;;;;;;;;;18.60;44.00;100735.44;4976725;28;20345;-81
2022/04/23 04:19:06;;;;;;;;;;;;;;;18.48;43.87;100730.38;4976493;28;19926;-82
2022/04/23 04:21:32;;;;;;;;;;;;;;;18.45;44.03;100733.91;4977935;28;19929;-84
2022/04/23 04:23:58;;;;;;;;;;;;;;;18.41;43.97;100726.16;4961526;28;19918;-83
2022/04/23 04:26:23;;;;;;;;;;;;;;;18.42;43.83;100730.47;4960770;28;20361;-82
2022/04/23 04:28:49;;;;;;;;;;;;;;;18.35;44.06;100726.25;4960831;28;19984;-81
2022/04/23 04:33:58;;;;;;;;;;;;;;;18.26;43.86;100733.28;4979117;28;20381;-83
2022/04/23 04:36:24;;;;;;;;;;;;;;;18.22;44.12;100731.63;4977005;28;19919;-81
2022/04/23 04:38:49;;;;;;;;;;;;;;;18.19;44.13;100734.28;4960150;28;19922;-83
2022/04/23 04:41:14;;;;;;;;;;;;;;;18.17;44.05;100735.19;4977817;28;19922;-82
2022/04/23 04:43:39;;;;;;;;;;;;;;;18.17;43.83;100732.56;4977403;28;20348;-82
2022/04/23 04:46:05;;;;;;;;;;;;;;;18.16;43.78;100736.03;4959778;28;19918;-81
2022/04/23 04:48:30;;;;;;;;;;;;;;;18.17;43.85;100737.78;4976419;28;20008;-81
2022/04/23 04:50:55;;;;;;;;;;;;;;;18.20;43.91;100742.94;4943095;28;20013;-81
2022/04/23 04:53:20;;;;;;;;;;;;;;;18.13;43.88;100736.97;4976118;28;20008;-82
2022/04/23 04:55:46;;;;;;;;;;;;;;;18.14;44.02;100748.22;4942678;28;19918;-81
2022/04/23 04:58:11;;;;;;;;;;;;;;;18.14;44.01;100737.81;4976054;28;19918;-81
2022/04/23 05:00:36;;;;;;;;;;;;;;;18.17;43.68;100741.25;4958703;28;19922;-81
2022/04/23 05:03:01;;;;;;;;;;;;;;;18.14;43.76;100736.09;4958728;28;19964;-81
2022/04/23 05:05:26;;;;;;;;;;;;;;;18.14;43.88;100736.09;4976063;28;20280;-81
2022/04/23 05:07:52;;;;;;;;;;;;;;;18.07;43.98;100730.09;4958707;28;19918;-81
2022/04/23 05:10:17;;;;;;;;;;;;;;;18.12;43.73;100737.84;4975783;28;19970;-81
2022/04/23 05:12:42;;;;;;;;;;;;;;;18.15;44.04;100740.41;4958440;28;19918;-81
2022/04/23 05:15:07;;;;;;;;;;;;;;;18.25;43.71;100739.41;4975816;28;19994;-82
2022/04/23 05:17:36;;;;;;;;;;;;;;;18.15;43.77;100740.41;4976003;28;19961;-81
2022/04/23 05:20:02;;;;;;;;;;;;;;;18.10;43.99;100731.81;4958256;28;19922;-81
2022/04/23 05:22:27;;;;;;;;;;;;;;;17.97;43.87;100736.31;4957854;28;19933;-81
2022/04/23 05:24:52;;;;;;;;;;;;;;;18.02;43.76;100741.44;4958237;28;19968;-81
2022/04/23 05:27:17;;;;;;;;;;;;;;;18.03;43.61;100738.84;4958528;28;19953;-81
2022/04/23 05:29:43;;;;;;;;;;;;;;;18.12;43.64;100739.56;4975469;28;19918;-81
2022/04/23 05:32:08;;;;;;;;;;;;;;;18.10;43.59;100739.63;4942379;28;19928;-81
2022/04/23 05:34:34;;;;;;;;;;;;;;;18.13;43.49;100728.28;4975374;28;19921;-81
2022/04/23 05:37:00;;;;;;;;;;;;;;;18.23;43.42;100732.50;4958306;28;20308;-81
2022/04/23 05:39:25;;;;;;;;;;;;;;;18.39;43.04;100728.78;4975429;28;20009;-81
2022/04/23 05:41:50;;;;;;;;;;;;;;;18.64;42.42;100729.28;4975605;28;20030;-82
2022/04/23 05:44:16;;;;;;;;;;;;;;;18.80;41.99;100724.72;4958051;28;19922;-82
2022/04/23 05:46:41;;;;;;;;;;;;;;;18.88;41.70;100719.38;4975150;28;19925;-82
2022/04/23 05:49:06;;;;;;;;;;;;;;;18.98;41.50;100725.28;4975337;28;19937;-82
2022/04/23 05:51:31;;;;;;;;;;;;;;;19.21;41.20;100727.50;4958348;28;19981;-81
2022/04/23 05:53:56;;;;;;;;;;;;;;;19.25;40.74;100730.03;4975503;28;19914;-82
2022/04/23 05:56:22;;;;;;;;;;;;;;;19.27;40.60;100729.97;4975288;28;19941;-79
2022/04/23 05:58:47;;;;;;;;;;;;;;;19.40;40.26;100728.00;4958028;28;20332;-79
2022/04/23 06:01:12;;;;;;;;;;;;;;;19.56;39.62;100728.59;4975332;28;19997;-79
2022/04/23 06:03:38;;;;;;;;;;;;;;;19.49;39.77;100720.88;4975189;28;19922;-80
2022/04/23 06:06:03;;;;;;;;;;;;;;;19.67;39.46;100724.88;4975365;28;19918;-79
2022/04/23 06:08:29;;;;;;;;;;;;;;;19.75;39.43;100724.75;4976934;28;20275;-82
2022/04/23 06:10:54;;;;;;;;;;;;;;;19.76;39.54;100728.22;4959202;28;20423;-80
2022/04/23 06:13:19;;;;;;;;;;;;;;;19.91;39.11;100733.13;4975611;28;20021;-82
2022/04/23 06:15:44;;;;;;;;;;;;;;;19.93;39.18;100726.13;4975269;28;19914;-81
2022/04/23 06:18:10;;;;;;;;;;;;;;;20.02;38.95;100727.69;4974840;28;20265;-82
2022/04/23 06:20:35;;;;;;;;;;;;;;;20.09;38.99;100729.25;4975231;28;19918;-82
2022/04/23 06:23:04;;;;;;;;;;;;;;;20.07;39.15;100729.28;4957792;28;19918;-79
2022/04/23 06:25:29;;;;;;;;;;;;;;;20.02;38.77;100727.69;4957685;28;19922;-79
2022/04/23 06:27:54;;;;;;;;;;;;;;;20.12;38.66;100717.00;4941625;28;19924;-78
2022/04/23 06:30:19;;;;;;;;;;;;;;;20.23;38.09;100714.16;4957419;28;19969;-78
2022/04/23 06:32:45;;;;;;;;;;;;;;;20.21;38.48;100705.50;4975422;28;19914;-78
2022/04/23 06:35:10;;;;;;;;;;;;;;;20.19;38.37;100706.41;4978773;28;19914;-77
2022/04/23 06:37:40;;;;;;;;;;;;;;;20.24;38.23;100704.56;4960790;28;20289;-80
2022/04/23 06:40:06;;;;;;;;;;;;;;;20.31;38.09;100700.91;4960886;28;19960;-77
2022/04/23 06:42:31;;;;;;;;;;;;;;;20.30;37.79;100707.88;4977410;28;19950;-78
2022/04/23 06:44:56;;;;;;;;;;;;;;;20.32;37.89;100711.31;4960716;28;19918;-82
2022/04/23 06:47:22;;;;;;;;;;;;;;;20.31;38.06;100714.81;4978153;28;19977;-78
2022/04/23 06:49:47;;;;;;;;;;;;;;;20.30;37.95;100713.09;4960767;28;19918;-77
2022/04/23 06:52:12;;;;;;;;;;;;;;;20.32;38.13;100705.25;4960901;28;19945;-77
2022/04/23 06:54:39;;;;;;;;;;;;;;;20.29;38.09;100713.97;4977986;28;19918;-78
2022/04/23 06:57:04;;;;;;;;;;;;;;;20.28;38.11;100709.66;4977933;28;20061;-78
2022/04/23 06:59:31;;;;;;;;;;;;;;;20.29;37.71;100718.34;4977991;28;19965;-78
2022/04/23 07:02:01;;;;;;;;;;;;;;;20.28;38.06;100708.81;4960366;28;19925;-80
2022/04/23 07:04:27;;;;;;;;;;;;;;;20.28;38.14;100703.59;4977937;28;19918;-79
2022/04/23 07:06:53;;;;;;;;;;;;;;;20.26;38.10;100705.38;4960499;28;19925;-79
2022/04/23 07:09:18;;;;;;;;;;;;;;;20.26;38.02;100708.84;4977557;28;20363;-78
2022/04/23 07:11:43;;;;;;;;;;;;;;;20.29;38.06;100713.13;4960448;28;20284;-78
2022/04/23 07:14:08;;;;;;;;;;;;;;;20.32;38.00;100702.63;4977656;28;19922;-78
2022/04/23 07:16:34;;;;;;;;;;;;;;;20.35;37.92;100708.63;4977941;28;19922;-77
2022/04/23 07:19:00;;;;;;;;;;;;;;;20.35;38.04;100706.00;4960000;28;19926;-77
2022/04/23 07:21:26;;;;;;;;;;;;;;;20.35;37.94;100708.63;4960029;28;19922;-77
2022/04/23 07:24:03;;;;;;;;;;;;;;;20.35;37.82;100703.41;4977474;28;19960;-79
2022/04/23 07:26:28;;;;;;;;;;;;;;;20.33;37.90;100710.41;4962009;28;19919;-77
2022/04/23 07:28:54;;;;;;;;;;;;;;;20.35;37.85;100700.78;4959988;28;19919;-77
2022/04/23 07:31:19;;;;;;;;;;;;;;;20.32;37.68;100703.47;4977260;28;19918;-77
2022/04/23 07:39:12;;;;;;;;;;;;;;;20.37;37.70;100699.91;4962567;28;20296;-77
2022/04/23 07:41:37;;;;;;;;;;;;;;;20.37;37.65;100702.53;4959821;28;19922;-77
2022/04/23 07:44:03;;;;;;;;;;;;;;;20.39;37.46;100693.75;4959042;28;19918;-77
2022/04/23 07:46:28;;;;;;;;;;;;;;;20.42;37.01;100685.81;4976964;28;19922;-77
2022/04/23 07:48:53;;;;;;;;;;;;;;;20.41;36.58;100683.25;4959722;28;19981;-78
2022/04/23 07:51:20;;;;;;;;;;;;;;;20.33;37.18;100680.81;4959526;28;19981;-78
2022/04/23 07:53:45;;;;;;;;;;;;;;;20.31;37.16;100685.22;4976853;28;19980;-77
2022/04/23 07:56:10;;;;;;;;;;;;;;;20.29;37.05;100684.38;4976597;28;20365;-78
2022/04/23 07:58:35;;;;;;;;;;;;;;;20.30;36.95;100681.75;4976715;28;19981;-78
2022/04/23 08:01:01;;;;;;;;;;;;;;;20.32;37.18;100685.19;4976596;28;19922;-78
2022/04/23 08:03:26;;;;;;;;;;;;;;;20.32;37.12;100677.34;4959386;28;19937;-77
2022/04/23 08:05:51;;;;;;;;;;;;;;;20.36;37.13;100678.16;4959171;28;19946;-78
2022/04/23 08:08:21;;;;;;;;;;;;;;;20.41;36.33;100683.25;4959477;28;19918;-78
2022/04/23 08:10:46;;;;;;;;;;;;;;;20.35;36.85;100682.50;4976714;28;19914;-78
2022/04/23 08:13:11;;;;;;;;;;;;;;;20.39;36.44;100677.22;4976304;28;19961;-77
2022/04/23 08:15:37;;;;;;;;;;;;;;;20.35;36.80;100674.66;4976586;28;19918;-78
2022/04/23 08:18:02;;;;;;;;;;;;;;;20.28;37.10;100677.47;4976612;28;19925;-78
2022/04/23 08:20:30;;;;;;;;;;;;;;;20.30;36.82;100671.28;4959170;28;20293;-78
2022/04/23 08:22:56;;;;;;;;;;;;;;;20.30;36.96;100668.69;4977886;28;19914;-78
2022/04/23 08:25:21;;;;;;;;;;;;;;;20.30;36.95;100666.06;4959487;28;19918;-78
2022/04/23 08:27:50;;;;;;;;;;;;;;;20.34;36.85;100670.34;4976518;28;19918;-78
2022/04/23 08:30:34;;;;;;;;;;;;;;;20.36;36.86;100657.25;4976273;28;19997;-78
2022/04/23 08:33:03;;;;;;;;;;;;;;;20.40;36.58;100660.63;4959130;28;19921;-77
2022/04/23 08:35:28;;;;;;;;;;;;;;;20.34;36.63;100659.88;4976303;28;20276;-77
2022/04/23 08:37:54;;;;;;;;;;;;;;;20.21;36.83;100668.91;4958860;28;19918;-77
2022/04/23 08:40:20;;;;;;;;;;;;;;;20.08;36.71;100672.69;4958690;28;19922;-77
2022/04/23 08:42:45;;;;;;;;;;;;;;;20.18;36.23;100668.09;4958844;28;19914;-77
2022/04/23 08:45:12;;;;;;;;;;;;;;;20.25;35.89;100660.09;4976174;28;20005;-78
2022/04/23 08:47:40;;;;;;;;;;;;;;;20.16;36.45;100662.06;4942672;28;19918;-77
2022/04/23 08:50:08;;;;;;;;;;;;;;;20.24;36.25;100654.91;4975901;28;20064;-78
2022/04/23 08:52:33;;;;;;;;;;;;;;;20.29;36.01;100660.88;4958608;28;19925;-80
2022/04/23 08:55:03;;;;;;;;;;;;;;;20.12;36.61;100654.31;4958483;28;20365;-84
2022/04/23 08:57:31;;;;;;;;;;;;;;;20.26;36.11;100668.78;4975832;28;20001;-80
2022/04/23 08:59:57;;;;;;;;;;;;;;;20.28;37.30;100664.41;4958825;28;19918;-82
2022/04/23 09:02:23;;;;;;;;;;;;;;;20.35;36.48;100668.56;4943070;28;19925;-87
2022/04/23 09:04:48;;;;;;;;;;;;;;;20.28;38.68;100660.03;4975837;28;19921;-83
2022/04/23 09:07:18;;;;;;;;;;;;;;;20.29;37.35;100666.94;4976112;28;20004;-86
2022/04/23 09:09:47;;;;;;;;;;;;;;;20.33;36.75;100660.75;4958627;28;19937;-84
2022/04/23 09:12:12;;;;;;;;;;;;;;;20.33;36.47;100671.22;4975897;28;19962;-84
2022/04/23 09:14:40;;;;;;;;;;;;;;;20.22;38.26;100660.16;4976143;28;19961;-88
2022/04/23 09:25:34;;;;;;;;;;;;;;;20.20;37.98;100661.09;4992830;28;20383;-88
2022/04/23 09:28:12;;;;;;;;;;;;;;;20.13;38.25;100661.22;4966828;28;20361;-90
2022/04/23 09:30:37;;;;;;;;;;;;;;;20.13;38.43;100652.53;4959908;28;19914;-84
2022/04/23 09:33:02;;;;;;;;;;;;;;;20.09;38.62;100656.97;4976436;28;19919;-88
2022/04/23 09:35:28;;;;;;;;;;;;;;;20.10;39.16;100657.84;4975810;28;19926;-86
2022/04/23 09:38:11;;;;;;;;;;;;;;;20.11;39.72;100647.34;4942539;28;19926;-85
2022/04/23 09:40:36;;;;;;;;;;;;;;;20.08;39.61;100644.81;4961312;28;19929;-86
2022/04/23 09:43:03;;;;;;;;;;;;;;;20.00;40.40;100641.50;4975668;28;19914;-77
2022/04/23 09:45:29;;;;;;;;;;;;;;;20.02;40.69;100633.66;4975305;28;19940;-81
2022/04/23 09:48:03;;;;;;;;;;;;;;;20.01;40.88;100630.19;4975292;28;19918;-84
2022/04/23 09:50:35;;;;;;;;;;;;;;;20.01;40.30;100634.53;4975299;28;19923;-78
2022/04/23 09:53:09;;;;;;;;;;;;;;;19.89;40.41;100627.84;4958078;28;20380;-77
2022/04/23 09:55:35;;;;;;;;;;;;;;;19.81;40.15;100634.97;4958173;28;19961;-84
2022/04/23 09:58:03;;;;;;;;;;;;;;;19.83;41.00;100631.44;4958215;28;20325;-78
2022/04/23 10:00:29;;;;;;;;;;;;;;;19.96;40.26;100642.47;4958241;28;20005;-84
2022/04/23 10:02:58;;;;;;;;;;;;;;;20.07;40.68;100637.84;4975005;28;19972;-78
2022/04/23 10:05:24;;;;;;;;;;;;;;;20.01;40.18;100632.78;4957853;28;19914;-77
2022/04/23 10:07:53;;;;;;;;;;;;;;;20.06;40.66;100643.13;4958911;28;19918;-77
2022/04/23 10:10:20;;;;;;;;;;;;;;;20.05;40.84;100641.41;4979218;28;19925;-77
2022/04/23 10:12:47;;;;;;;;;;;;;;;19.99;40.40;100639.81;4979135;28;19946;-76
2022/04/23 10:15:12;;;;;;;;;;;;;;;19.94;40.26;100634.66;4978964;28;20285;-77
2022/04/23 10:17:39;;;;;;;;;;;;;;;19.90;40.23;100630.44;4978615;28;20012;-77
2022/04/23 10:20:09;;;;;;;;;;;;;;;19.89;39.92;100635.66;4961333;28;19926;-77
2022/04/23 10:23:09;;;;;;;;;;;;;;;19.87;39.58;100634.84;4978585;28;19918;-79
2022/04/23 10:25:53;;;;;;;;;;;;;;;19.86;39.59;100641.81;4919463;29;19938;-77
2022/04/23 10:28:19;;;;;;;;;;;;;;;19.80;39.33;100641.09;4956104;28;19921;-78
2022/04/23 10:30:46;;;;;;;;;;;;;;;19.81;39.20;100629.75;4978796;28;19914;-77
2022/04/23 10:33:25;;;;;;;;;;;;;;;19.78;39.27;100625.47;4961368;28;19965;-77
2022/04/23 10:36:08;;;;;;;;;;;;;;;19.76;39.18;100632.47;4961060;28;19918;-78
2022/04/23 10:38:33;;;;;;;;;;;;;;;19.73;39.02;100640.38;4978318;28;19918;-79
2022/04/23 10:40:59;;;;;;;;;;;;;;;19.71;38.75;100621.28;4960798;28;20014;-77
2022/04/23 10:43:25;;;;;;;;;;;;;;;19.71;38.61;100645.63;4960941;28;20441;-77
2022/04/23 10:45:51;;;;;;;;;;;;;;;19.69;38.31;100636.97;4961152;28;19918;-77
2022/04/23 10:48:19;;;;;;;;;;;;;;;19.70;38.23;100635.22;4978540;28;19914;-76
2022/04/23 10:50:57;;;;;;;;;;;;;;;19.68;38.34;100616.06;4978431;28;20308;-77
2022/04/23 10:53:26;;;;;;;;;;;;;;;19.72;38.25;100620.38;4960878;28;19923;-77
2022/04/23 10:56:05;;;;;;;;;;;;;;;19.72;38.04;100623.84;4977710;28;19964;-77
2022/04/23 10:58:31;;;;;;;;;;;;;;;19.70;37.91;100616.94;4978133;28;19918;-76
2022/04/23 11:01:16;;;;;;;;;;;;;;;19.73;38.87;100617.75;4978122;28;19918;-77
2022/04/23 11:03:43;;;;;;;;;;;;;;;19.89;40.74;100606.94;4978125;28;20276;-76
2022/04/23 11:12:16;;;;;;;;;;;;;;;19.61;43.13;100604.06;4978033;28;19921;-78
2022/04/23 11:14:44;;;;;;;;;;;;;;;19.45;44.62;100603.53;4960497;28;19917;-76
2022/04/23 11:17:17;;;;;;;;;;;;;;;19.42;44.64;100607.03;4977594;28;20386;-76
2022/04/23 11:19:42;;;;;;;;;;;;;;;19.39;43.08;100612.34;4959032;28;20026;-76
2022/04/23 11:22:10;;;;;;;;;;;;;;;19.41;43.81;100615.78;4944313;28;20013;-77
2022/04/23 11:24:35;;;;;;;;;;;;;;;19.36;47.14;100601.97;4960274;28;19914;-76
2022/04/23 11:27:00;;;;;;;;;;;;;;;19.37;43.16;100598.47;4960278;28;20008;-76
2022/04/23 11:29:27;;;;;;;;;;;;;;;19.40;45.17;100611.47;4960074;28;19918;-78
2022/04/23 11:31:54;;;;;;;;;;;;;;;19.33;48.48;100608.09;4959815;28;19922;-76
2022/04/23 11:34:19;;;;;;;;;;;;;;;19.36;43.02;100608.91;4977456;28;19914;-76
2022/04/23 11:36:44;;;;;;;;;;;;;;;19.31;44.88;100603.81;4977344;28;20276;-76
2022/04/23 11:39:10;;;;;;;;;;;;;;;19.34;46.96;100603.75;4959858;28;19915;-76
2022/04/23 11:41:36;;;;;;;;;;;;;;;19.36;47.89;100595.88;4960002;28;19980;-76
2022/04/23 11:44:11;;;;;;;;;;;;;;;19.37;45.16;100593.25;4959996;28;20373;-76
2022/04/23 11:46:46;;;;;;;;;;;;;;;19.37;44.32;100589.78;4977164;28;20254;-76
2022/04/23 11:49:32;;;;;;;;;;;;;;;19.36;43.85;100599.38;4977346;28;20018;-75
2022/04/23 11:52:00;;;;;;;;;;;;;;;19.36;44.76;100594.16;4976616;28;19913;-76
2022/04/23 11:54:36;;;;;;;;;;;;;;;19.38;48.09;100600.19;4959914;28;20362;-77
2022/04/23 11:57:02;;;;;;;;;;;;;;;19.39;48.44;100588.84;4977045;28;19918;-76
2022/04/23 11:59:34;;;;;;;;;;;;;;;19.44;44.97;100579.16;4959622;28;19921;-77
2022/04/23 12:02:00;;;;;;;;;;;;;;;19.45;43.61;100577.44;4959756;28;20420;-77
2022/04/23 12:04:25;;;;;;;;;;;;;;;19.40;46.14;100582.75;4959944;28;19961;-76
2022/04/23 12:06:50;;;;;;;;;;;;;;;19.43;45.71;100581.81;4977135;28;19977;-76
2022/04/23 12:09:15;;;;;;;;;;;;;;;19.46;47.01;100580.00;4977175;28;20009;-76
2022/04/23 12:11:41;;;;;;;;;;;;;;;19.45;48.38;100578.28;4959719;28;19925;-75
2022/04/23 12:14:06;;;;;;;;;;;;;;;19.46;45.52;100573.91;4959359;28;19961;-75
2022/04/23 12:16:31;;;;;;;;;;;;;;;19.47;44.92;100576.50;4976564;28;20349;-76
2022/04/23 12:18:57;;;;;;;;;;;;;;;19.48;44.05;100566.91;4959136;28;20025;-74
2022/04/23 12:21:23;;;;;;;;;;;;;;;19.45;49.75;100570.47;4959059;28;20300;-75
2022/04/23 12:23:49;;;;;;;;;;;;;;;19.49;46.55;100568.66;4959142;28;19919;-77
2022/04/23 12:26:18;;;;;;;;;;;;;;;19.49;44.12;100572.13;4959230;28;19918;-76
2022/04/23 12:42:44;;;;;;;;;;;;;;;19.58;48.15;100562.38;4977252;28;20457;-78
2022/04/23 12:45:18;;;;;;;;;;;;;;;19.55;46.34;100562.44;4978051;28;19918;-77
2022/04/23 12:47:44;;;;;;;;;;;;;;;19.58;47.94;100552.78;4976343;28;19924;-77
2022/04/23 12:50:09;;;;;;;;;;;;;;;19.64;43.38;100544.81;4959360;28;19918;-77
2022/04/23 12:52:37;;;;;;;;;;;;;;;19.64;45.53;100538.72;4942906;28;19941;-78
2022/04/23 12:55:17;;;;;;;;;;;;;;;19.60;46.24;100542.28;4958892;28;19985;-77
2022/04/23 12:58:04;;;;;;;;;;;;;;;19.55;47.67;100544.16;4959550;28;20407;-77
2022/04/23 13:00:33;;;;;;;;;;;;;;;19.56;44.90;100548.50;4976289;28;19941;-77
2022/04/23 13:03:06;;;;;;;;;;;;;;;19.53;44.37;100542.44;4958467;28;20281;-77
2022/04/23 13:05:31;;;;;;;;;;;;;;;19.59;43.73;100540.59;4959295;28;20376;-77
2022/04/23 13:10:40;;;;;;;;;;;;;;;19.63;43.90;100529.19;4976532;28;20461;-77
2022/04/23 13:13:07;;;;;;;;;;;;;;;19.62;43.19;100527.44;4958499;28;19914;-77